DW8176 Weather Reports


Display with metric or nautical units.
time (UTC)temp
F
wind
direction
speed
MPH
gust
MPH
rain 1hr
in
rain 24hr
in
rain mn
in
humidity
%
barometer
mb
20210918140144 77 12 0.0 5.0 0.00 0.04 0.00 80 1020.5
20210918130142 75 27 1.0 6.0 0.00 0.04 0.00 86 1020.0
20210918120142 74 334 0.0 0.0 0.00 0.04 0.00 90 1020.3
20210918110142 74 350 0.0 0.0 0.00 0.04 0.00 91 1019.8
20210918100143 73 359 0.0 0.0 0.00 0.04 0.00 87 1019.1
20210918090142 73 359 0.0 0.0 0.00 0.04 0.00 85 1018.8
20210918080142 74 47 0.0 4.0 0.00 0.05 0.00 85 1018.6
20210918070142 74 4 0.0 4.0 0.00 0.05 0.00 84 1018.5
20210918060142 75 18 0.0 4.0 0.00 0.05 0.00 86 1018.5
20210918050142 74 9 0.0 5.0 0.00 0.05 0.00 86 1018.7
20210918040142 75 8 1.0 2.0 0.00 0.05 0.00 85 1018.9
20210918030142 75 18 0.0 4.0 0.00 0.05 0.05 84 1019.5
20210918020142 75 40 0.0 10.0 0.00 0.05 0.05 84 1019.7
20210918010144 76 51 0.0 8.0 0.00 0.05 0.05 83 1019.5
20210918000142 76 47 0.0 8.0 0.00 0.05 0.05 84 1019.0
20210917230142 77 93 1.0 11.0 0.00 0.05 0.05 84 1018.7
20210917220142 78 22 2.0 10.0 0.00 0.05 0.05 83 1018.5
20210917210143 80 21 0.0 12.0 0.00 0.05 0.05 80 1018.5
20210917200142 81 4 4.0 14.0 0.00 0.05 0.05 77 1018.6
20210917190142 82 21 2.0 14.0 0.00 0.05 0.05 77 1018.6
20210917180142 81 41 8.0 14.0 0.01 0.05 0.05 83 1019.0
20210917170142 79 9 2.0 14.0 0.00 0.04 0.04 85 1019.6
20210917160142 79 42 0.0 11.0 0.01 0.04 0.04 86 1020.0
20210917150142 78 70 0.0 15.0 0.02 0.03 0.03 87 1020.1